Time;durP1;ratioP1;P1;durP2;ratioP2;P2;SDS_P1;SDS_P2;PMS_P1;PMS_P2;Temp;Humidity;BMP_temperature;BMP_pressure;BME280_temperature;BME280_humidity;BME280_pressure;Samples;Min_cycle;Max_cycle;Signal;HPM_P1;HPM_P2
2021/03/03 00:00:41;;;;;;;14.13;7.88;;;2.10;99.90;;;;;;5013856;28;20090;-84
2021/03/03 00:03:07;;;;;;;13.18;8.05;;;1.90;99.90;;;;;;5017587;28;20078;-85
2021/03/03 00:05:32;;;;;;;14.60;8.27;;;1.90;99.90;;;;;;5016526;28;20493;-84
2021/03/03 00:07:58;;;;;;;15.40;7.78;;;1.80;99.90;;;;;;5012179;28;20113;-85
2021/03/03 00:10:25;;;;;;;13.75;8.20;;;1.70;99.90;;;;;;5006225;28;20082;-84
2021/03/03 00:12:50;;;;;;;15.43;8.18;;;1.60;99.90;;;;;;5014645;28;20117;-84
2021/03/03 00:15:16;;;;;;;13.90;8.68;;;1.80;99.90;;;;;;5014370;28;20129;-84
2021/03/03 00:17:42;;;;;;;14.77;7.55;;;1.70;99.90;;;;;;5004611;28;20085;-85
2021/03/03 00:20:10;;;;;;;14.88;8.25;;;1.60;99.90;;;;;;5019938;28;20537;-86
2021/03/03 00:22:36;;;;;;;13.63;8.00;;;1.50;99.90;;;;;;5007839;28;20150;-86
2021/03/03 00:25:01;;;;;;;13.98;8.18;;;1.50;99.90;;;;;;5012829;28;20109;-87
2021/03/03 00:27:27;;;;;;;14.68;7.22;;;1.50;99.90;;;;;;5018859;28;20081;-86
2021/03/03 00:29:53;;;;;;;14.80;8.05;;;1.70;99.90;;;;;;5013962;28;20105;-85
2021/03/03 00:32:18;;;;;;;12.88;7.60;;;1.70;99.90;;;;;;5014433;28;20603;-85
2021/03/03 00:34:44;;;;;;;15.25;8.50;;;1.80;99.90;;;;;;5012890;28;20094;-85
2021/03/03 00:37:10;;;;;;;12.05;7.38;;;1.90;99.90;;;;;;5006404;28;20082;-86
2021/03/03 00:39:35;;;;;;;17.13;8.52;;;1.90;99.90;;;;;;5001346;28;20196;-85
2021/03/03 00:42:01;;;;;;;12.52;7.43;;;1.90;99.90;;;;;;5002604;28;20426;-84
2021/03/03 00:44:28;;;;;;;14.00;8.43;;;1.60;99.90;;;;;;5002029;28;20078;-84
2021/03/03 00:46:53;;;;;;;12.35;7.50;;;1.50;99.90;;;;;;4998627;28;20289;-83
2021/03/03 00:49:19;;;;;;;14.15;7.45;;;1.40;99.90;;;;;;5014032;28;20131;-84
2021/03/03 00:51:45;;;;;;;13.25;7.80;;;1.40;99.90;;;;;;5011301;28;20070;-85
2021/03/03 00:54:10;;;;;;;14.15;7.93;;;1.30;99.90;;;;;;5014385;28;20089;-85
2021/03/03 00:56:36;;;;;;;14.02;8.30;;;1.50;99.90;;;;;;5014072;28;20101;-85
2021/03/03 00:59:02;;;;;;;14.25;8.07;;;1.40;99.90;;;;;;5002773;28;20070;-84
2021/03/03 01:01:27;;;;;;;13.10;7.85;;;1.40;99.90;;;;;;4997616;28;20086;-84
2021/03/03 01:03:53;;;;;;;13.68;7.53;;;1.40;99.90;;;;;;5014008;28;20154;-82
2021/03/03 01:06:19;;;;;;;13.50;7.90;;;1.30;99.90;;;;;;5013632;28;20122;-83
2021/03/03 01:08:45;;;;;;;13.75;8.00;;;1.40;99.90;;;;;;5017908;28;20077;-83
2021/03/03 01:11:10;;;;;;;15.00;8.35;;;1.40;99.90;;;;;;5022894;28;20074;-82
2021/03/03 01:13:36;;;;;;;13.38;7.82;;;1.40;99.90;;;;;;5017712;28;20157;-83
2021/03/03 01:16:02;;;;;;;14.43;8.00;;;1.40;99.90;;;;;;5026580;28;20092;-83
2021/03/03 01:18:28;;;;;;;14.30;8.27;;;1.40;99.90;;;;;;5026211;28;20074;-83
2021/03/03 01:20:54;;;;;;;17.35;9.15;;;1.40;99.90;;;;;;5026975;28;20097;-83
2021/03/03 01:23:21;;;;;;;14.77;8.13;;;1.50;99.90;;;;;;5016421;28;20087;-85
2021/03/03 01:25:46;;;;;;;14.50;8.43;;;1.50;99.90;;;;;;5008027;28;20094;-83
2021/03/03 01:28:12;;;;;;;13.43;7.50;;;1.30;99.90;;;;;;5006794;28;20588;-82
2021/03/03 01:30:38;;;;;;;18.48;8.45;;;1.10;99.90;;;;;;5007449;28;20568;-83
2021/03/03 01:33:04;;;;;;;11.55;7.30;;;1.10;99.90;;;;;;5010509;28;20076;-84
2021/03/03 01:35:30;;;;;;;13.57;7.75;;;1.30;99.90;;;;;;5024791;28;20559;-85
2021/03/03 01:37:55;;;;;;;12.93;7.93;;;1.20;99.90;;;;;;5015563;28;20074;-83
2021/03/03 01:40:21;;;;;;;11.80;7.25;;;1.20;99.90;;;;;;5007718;28;20519;-84
2021/03/03 01:42:47;;;;;;;13.60;7.97;;;1.30;99.90;;;;;;5013549;28;20180;-84
2021/03/03 01:45:14;;;;;;;15.20;8.07;;;1.30;99.90;;;;;;5015358;28;20098;-83
2021/03/03 01:47:39;;;;;;;12.20;7.07;;;1.40;99.90;;;;;;5001947;28;20531;-82
2021/03/03 01:50:07;;;;;;;14.32;8.38;;;1.30;99.90;;;;;;5016795;28;20086;-83
2021/03/03 01:52:35;;;;;;;12.93;7.60;;;1.20;99.90;;;;;;5011686;28;20097;-83
2021/03/03 01:55:01;;;;;;;12.52;7.53;;;1.20;99.90;;;;;;5015312;28;20098;-82
2021/03/03 01:57:27;;;;;;;13.52;7.30;;;1.20;99.90;;;;;;5010870;28;20250;-82
2021/03/03 01:59:53;;;;;;;14.68;7.85;;;1.10;99.90;;;;;;5000910;28;20599;-83
2021/03/03 02:02:23;;;;;;;14.05;7.93;;;1.10;99.90;;;;;;5016124;28;20108;-83
2021/03/03 02:04:48;;;;;;;13.00;7.53;;;1.30;99.90;;;;;;5013530;28;20082;-83
2021/03/03 02:07:48;;;;;;;15.70;8.10;;;1.40;99.90;;;;;;5007955;28;20085;-83
2021/03/03 02:10:38;;;;;;;13.85;7.47;;;1.20;99.90;;;;;;5016886;28;20081;-82
2021/03/03 02:13:10;;;;;;;14.60;8.25;;;1.20;99.90;;;;;;4999580;28;20221;-82
2021/03/03 02:15:38;;;;;;;15.52;7.95;;;1.20;99.90;;;;;;5013372;28;20208;-82
2021/03/03 02:18:06;;;;;;;15.65;8.32;;;0.90;99.90;;;;;;5020886;28;20081;-83
2021/03/03 02:20:41;;;;;;;15.27;8.52;;;0.90;99.90;;;;;;5007451;28;20169;-83
2021/03/03 02:23:16;;;;;;;;;;;0.90;99.90;;;;;;5011028;28;20082;-83
2021/03/03 02:25:46;;;;;;;14.20;7.80;;;1.00;99.90;;;;;;5015437;28;20328;-82
2021/03/03 02:28:13;;;;;;;14.88;8.88;;;1.00;99.90;;;;;;5014794;28;20081;-83
2021/03/03 02:30:43;;;;;;;16.30;7.90;;;1.10;99.90;;;;;;5015686;28;20074;-82
2021/03/03 02:33:15;;;;;;;16.15;8.18;;;1.30;99.90;;;;;;5000922;28;20092;-82
2021/03/03 02:35:43;;;;;;;13.52;8.55;;;1.30;99.90;;;;;;5017265;28;20159;-82
2021/03/03 02:38:13;;;;;;;14.23;8.30;;;1.40;99.90;;;;;;5000137;28;20101;-83
2021/03/03 02:40:41;;;;;;;14.90;8.55;;;1.30;99.90;;;;;;5015672;28;20074;-83
2021/03/03 02:43:10;;;;;;;12.40;7.57;;;1.10;99.90;;;;;;5019167;28;20081;-83
2021/03/03 02:45:36;;;;;;;12.60;7.50;;;1.20;99.90;;;;;;5015145;28;20515;-84
2021/03/03 02:48:03;;;;;;;11.45;7.57;;;1.20;99.90;;;;;;5015718;28;20125;-84
2021/03/03 02:50:29;;;;;;;14.32;7.15;;;1.20;99.90;;;;;;5014868;28;20175;-83
2021/03/03 02:52:57;;;;;;;12.55;7.65;;;1.20;99.90;;;;;;5014667;28;20565;-85
2021/03/03 02:55:24;;;;;;;18.17;8.63;;;1.00;99.90;;;;;;4997100;28;20946;-83
2021/03/03 02:57:51;;;;;;;16.35;9.32;;;0.80;99.90;;;;;;5011478;28;20073;-83
2021/03/03 03:00:22;;;;;;;13.15;7.32;;;0.90;99.90;;;;;;5001270;28;20120;-86
2021/03/03 03:02:51;;;;;;;12.43;7.63;;;1.10;99.90;;;;;;5011899;28;20074;-82
2021/03/03 03:05:19;;;;;;;10.45;7.05;;;1.10;99.90;;;;;;5017863;28;20176;-82
2021/03/03 03:07:49;;;;;;;15.55;8.13;;;1.10;99.90;;;;;;5001837;28;20129;-82
2021/03/03 03:10:20;;;;;;;13.98;8.13;;;1.20;99.90;;;;;;5007200;28;20085;-83
2021/03/03 03:12:51;;;;;;;14.88;8.57;;;0.90;99.90;;;;;;4996199;28;20090;-84
2021/03/03 03:15:21;;;;;;;16.13;9.32;;;0.60;99.90;;;;;;4998995;28;20872;-83
2021/03/03 03:17:50;;;;;;;13.32;8.70;;;0.70;99.90;;;;;;5012149;28;20070;-84
2021/03/03 03:20:17;;;;;;;16.65;9.55;;;0.80;99.90;;;;;;5011813;28;20556;-83
2021/03/03 03:22:46;;;;;;;14.20;8.45;;;0.70;99.90;;;;;;5002625;28;20085;-85
2021/03/03 03:25:14;;;;;;;12.75;8.48;;;0.50;99.90;;;;;;5013371;28;20177;-84
2021/03/03 03:27:40;;;;;;;15.68;8.38;;;0.50;99.90;;;;;;5011799;28;20109;-84
2021/03/03 03:30:07;;;;;;;14.52;8.75;;;0.50;99.90;;;;;;4998438;28;20086;-82
2021/03/03 03:32:33;;;;;;;14.63;8.95;;;0.40;99.90;;;;;;5016877;28;20131;-85
2021/03/03 03:34:59;;;;;;;14.80;8.88;;;0.40;99.90;;;;;;5015572;28;20173;-84
2021/03/03 03:37:26;;;;;;;15.73;9.07;;;0.50;99.90;;;;;;5015125;28;20077;-83
2021/03/03 03:39:52;;;;;;;17.63;8.48;;;0.40;99.90;;;;;;5011945;28;20074;-83
2021/03/03 03:42:19;;;;;;;16.20;9.02;;;0.40;99.90;;;;;;4981123;28;694049;-84
2021/03/03 03:44:47;;;;;;;14.15;8.55;;;0.70;99.90;;;;;;4999221;28;20082;-85
2021/03/03 03:47:16;;;;;;;13.40;8.23;;;0.70;99.90;;;;;;5017572;28;20117;-83
2021/03/03 03:49:46;;;;;;;13.63;8.52;;;0.70;99.90;;;;;;5014034;28;20151;-84
2021/03/03 03:52:19;;;;;;;16.15;8.77;;;0.50;99.90;;;;;;5016036;28;20086;-85
2021/03/03 03:54:52;;;;;;;19.02;7.88;;;0.60;99.90;;;;;;5032266;28;20121;-84
2021/03/03 03:57:19;;;;;;;16.27;9.07;;;0.70;99.90;;;;;;5016400;28;20500;-84
2021/03/03 03:59:46;;;;;;;13.95;9.00;;;0.50;99.90;;;;;;5018751;28;20105;-84
2021/03/03 04:02:11;;;;;;;14.35;8.57;;;0.60;99.90;;;;;;5013203;28;20116;-85
2021/03/03 04:04:38;;;;;;;15.52;8.25;;;0.40;99.90;;;;;;5008357;28;20090;-84
2021/03/03 04:07:04;;;;;;;12.18;7.88;;;0.60;99.90;;;;;;5014909;28;20553;-85
2021/03/03 04:09:30;;;;;;;14.68;7.97;;;0.60;99.90;;;;;;5013266;28;20113;-81
2021/03/03 04:11:57;;;;;;;11.68;8.27;;;0.70;99.90;;;;;;5005237;28;20464;-85
2021/03/03 04:14:23;;;;;;;12.18;7.63;;;0.60;99.90;;;;;;5011978;28;20106;-81
2021/03/03 04:16:49;;;;;;;15.32;7.97;;;0.40;99.90;;;;;;5014273;28;20094;-82
2021/03/03 04:19:15;;;;;;;15.05;8.80;;;0.40;99.90;;;;;;5012942;28;20097;-82
2021/03/03 04:21:41;;;;;;;12.63;7.72;;;0.30;99.90;;;;;;5017536;28;20082;-82
2021/03/03 04:24:07;;;;;;;13.43;8.63;;;0.40;99.90;;;;;;5009866;28;20586;-83
2021/03/03 04:26:33;;;;;;;14.90;8.25;;;0.50;99.90;;;;;;5008993;28;20116;-83
2021/03/03 04:29:02;;;;;;;15.13;8.43;;;0.60;99.90;;;;;;5016274;28;20161;-82
2021/03/03 04:31:27;;;;;;;14.35;8.95;;;0.40;99.90;;;;;;5030878;28;20537;-83
2021/03/03 04:33:53;;;;;;;13.18;7.75;;;0.20;99.90;;;;;;5011610;28;20098;-84
2021/03/03 04:36:19;;;;;;;14.68;7.63;;;0.00;99.90;;;;;;5021490;28;20098;-83
2021/03/03 04:38:45;;;;;;;13.88;8.48;;;0.00;99.90;;;;;;5014397;28;20082;-82
2021/03/03 04:41:10;;;;;;;13.27;8.63;;;0.40;99.90;;;;;;4999086;28;20167;-82
2021/03/03 04:43:36;;;;;;;13.45;7.70;;;0.10;99.90;;;;;;5007580;28;20086;-82
2021/03/03 04:46:02;;;;;;;15.85;8.35;;;0.10;99.90;;;;;;5018662;28;20101;-82
2021/03/03 04:48:28;;;;;;;13.70;8.02;;;0.20;99.90;;;;;;5011518;28;20124;-82
2021/03/03 04:50:53;;;;;;;11.43;7.57;;;0.20;99.90;;;;;;5020275;28;20153;-82
2021/03/03 04:53:19;;;;;;;12.98;8.23;;;0.20;99.90;;;;;;5007305;28;20241;-82
2021/03/03 04:55:45;;;;;;;13.27;8.30;;;0.10;99.90;;;;;;5016372;28;20106;-83
2021/03/03 04:58:11;;;;;;;14.48;8.60;;;0.00;99.90;;;;;;5020861;28;20082;-82
2021/03/03 05:00:37;;;;;;;13.25;8.00;;;0.00;99.90;;;;;;5014283;28;20525;-82
2021/03/03 05:03:06;;;;;;;11.48;7.55;;;-0.10;99.90;;;;;;5016863;28;20092;-82
2021/03/03 05:05:32;;;;;;;14.40;7.85;;;-0.20;99.90;;;;;;5026654;28;20101;-83
2021/03/03 05:07:57;;;;;;;12.63;7.68;;;-0.10;99.90;;;;;;5017408;28;20088;-82
2021/03/03 05:10:23;;;;;;;11.95;7.35;;;-0.30;99.90;;;;;;5020993;28;20082;-82
2021/03/03 05:12:49;;;;;;;14.45;7.75;;;-0.30;99.90;;;;;;5012862;28;20098;-82
2021/03/03 05:15:21;;;;;;;12.13;6.57;;;-0.60;99.90;;;;;;5023913;28;20102;-83
2021/03/03 05:17:46;;;;;;;14.23;8.00;;;-0.50;99.90;;;;;;5018796;28;20125;-82
2021/03/03 05:20:12;;;;;;;12.15;7.25;;;-0.60;99.90;;;;;;5023371;28;20078;-82
2021/03/03 05:22:38;;;;;;;14.18;8.68;;;-0.50;99.90;;;;;;5020512;28;20078;-82
2021/03/03 05:25:05;;;;;;;10.45;6.43;;;-0.40;99.90;;;;;;5021227;28;20085;-82
2021/03/03 05:27:31;;;;;;;12.00;8.05;;;-0.20;99.90;;;;;;5018876;28;20077;-83
2021/03/03 05:29:56;;;;;;;11.98;6.43;;;-0.30;99.90;;;;;;5014017;28;20078;-81
2021/03/03 05:32:25;;;;;;;15.10;8.15;;;-0.50;99.90;;;;;;5019597;28;20086;-80
2021/03/03 05:34:51;;;;;;;11.10;6.97;;;-0.40;99.90;;;;;;5005809;28;20086;-81
2021/03/03 05:37:17;;;;;;;12.75;6.72;;;-0.30;99.90;;;;;;5013339;28;20082;-81
2021/03/03 05:39:43;;;;;;;11.65;5.75;;;-0.40;99.90;;;;;;5020149;28;20212;-82
2021/03/03 05:42:09;;;;;;;11.75;6.90;;;-0.30;99.90;;;;;;5019711;28;20101;-82
2021/03/03 05:44:35;;;;;;;10.40;6.03;;;-0.40;99.90;;;;;;5017403;28;20089;-81
2021/03/03 05:47:02;;;;;;;9.57;6.35;;;-0.40;99.90;;;;;;5002441;28;20125;-82
2021/03/03 05:49:30;;;;;;;11.70;6.47;;;-0.60;99.90;;;;;;5018320;28;20086;-82
2021/03/03 05:51:57;;;;;;;10.07;6.22;;;-0.40;99.90;;;;;;5008875;28;20106;-82
2021/03/03 05:54:23;;;;;;;10.95;5.32;;;-0.10;99.90;;;;;;5017581;28;20161;-85
2021/03/03 05:56:49;;;;;;;11.85;5.43;;;-0.20;99.90;;;;;;5020982;28;20125;-82
2021/03/03 05:59:16;;;;;;;11.13;6.35;;;-0.30;99.90;;;;;;5017651;28;20127;-81
2021/03/03 06:01:44;;;;;;;10.48;5.95;;;-0.30;99.90;;;;;;5004821;28;20140;-80
2021/03/03 06:04:11;;;;;;;10.60;5.90;;;-0.20;99.90;;;;;;5013637;28;20524;-81
2021/03/03 06:06:44;;;;;;;9.68;6.25;;;-0.20;99.90;;;;;;5006177;28;20125;-81
2021/03/03 06:09:10;;;;;;;9.23;5.57;;;-0.10;99.90;;;;;;5025543;28;20078;-82
2021/03/03 06:11:36;;;;;;;10.45;6.20;;;-0.30;99.90;;;;;;5004277;28;20086;-81
2021/03/03 06:14:03;;;;;;;10.60;6.10;;;-0.50;99.90;;;;;;5002552;28;20094;-81
2021/03/03 06:16:29;;;;;;;11.15;6.00;;;-0.60;99.90;;;;;;5009224;28;20102;-80
2021/03/03 06:18:55;;;;;;;10.40;5.82;;;-0.60;99.90;;;;;;5020775;28;20089;-79
2021/03/03 06:21:27;;;;;;;9.65;5.78;;;-0.60;99.90;;;;;;5015868;28;20086;-79
2021/03/03 06:24:00;;;;;;;10.55;5.95;;;-0.60;99.90;;;;;;5009991;28;20173;-79
2021/03/03 06:26:26;;;;;;;8.18;5.13;;;-0.60;99.90;;;;;;4997115;28;20190;-79
2021/03/03 06:28:53;;;;;;;10.73;6.00;;;-0.30;99.90;;;;;;5012157;28;20164;-79
2021/03/03 06:31:33;;;;;;;9.98;5.22;;;-0.20;99.90;;;;;;5004672;28;20479;-76
2021/03/03 06:34:17;;;;;;;14.00;6.40;;;0.00;99.90;;;;;;5003513;28;20108;-77
2021/03/03 06:36:48;;;;;;;10.38;6.10;;;0.30;99.90;;;;;;5009978;28;20094;-77
2021/03/03 06:39:37;;;;;;;9.23;5.93;;;0.30;99.90;;;;;;5001271;28;20093;-76
2021/03/03 06:42:04;;;;;;;7.93;5.50;;;0.20;99.90;;;;;;4995798;28;20126;-76
2021/03/03 06:44:54;;;;;;;12.07;5.78;;;0.30;99.90;;;;;;4993196;28;20563;-76
2021/03/03 06:47:21;;;;;;;9.20;5.90;;;0.20;99.90;;;;;;5003115;28;20086;-76
2021/03/03 06:49:47;;;;;;;10.50;5.75;;;0.40;99.90;;;;;;4995451;28;20094;-76
2021/03/03 06:52:12;;;;;;;9.25;5.80;;;0.20;99.90;;;;;;4992841;28;20078;-76
2021/03/03 06:54:38;;;;;;;13.48;6.03;;;0.40;99.90;;;;;;5007190;28;20561;-76
2021/03/03 06:57:07;;;;;;;7.63;5.18;;;0.70;99.90;;;;;;5018566;28;20132;-76
2021/03/03 06:59:33;;;;;;;9.75;5.72;;;0.90;99.90;;;;;;4998687;28;20084;-76
2021/03/03 07:02:15;;;;;;;9.55;5.75;;;1.20;99.90;;;;;;5009377;28;20132;-76
2021/03/03 07:04:44;;;;;;;6.95;5.07;;;1.00;99.90;;;;;;4995519;28;20172;-77
2021/03/03 07:07:14;;;;;;;11.02;6.03;;;0.70;99.90;;;;;;4996140;28;20097;-76
2021/03/03 07:09:44;;;;;;;10.00;5.55;;;1.00;99.90;;;;;;5003329;28;20082;-77
2021/03/03 07:12:15;;;;;;;10.00;6.15;;;1.20;99.90;;;;;;4996517;28;20090;-77
2021/03/03 07:14:43;;;;;;;10.73;5.95;;;1.50;99.90;;;;;;5013803;28;20472;-77
2021/03/03 07:17:14;;;;;;;11.75;5.80;;;1.60;99.90;;;;;;5006926;28;20117;-78
2021/03/03 07:19:46;;;;;;;10.35;6.03;;;1.80;99.90;;;;;;5002543;28;20205;-79
2021/03/03 07:22:43;;;;;;;9.52;5.97;;;2.10;99.90;;;;;;4999815;28;20083;-79
2021/03/03 07:25:10;;;;;;;7.35;5.57;;;2.00;99.90;;;;;;5006093;28;20197;-79
2021/03/03 07:27:37;;;;;;;12.15;6.35;;;2.10;99.90;;;;;;4999487;28;20119;-79
2021/03/03 07:30:10;;;;;;;11.93;6.28;;;2.20;99.90;;;;;;5014237;28;20078;-80
2021/03/03 07:32:37;;;;;;;10.90;6.25;;;2.30;99.90;;;;;;5013576;28;20174;-80
2021/03/03 07:35:08;;;;;;;12.93;6.22;;;2.60;99.90;;;;;;5017144;28;20093;-81
2021/03/03 07:37:33;;;;;;;10.68;6.65;;;2.50;99.90;;;;;;5008835;28;20085;-81
2021/03/03 07:40:10;;;;;;;10.30;6.75;;;2.50;99.90;;;;;;5018129;28;20074;-82
2021/03/03 07:42:38;;;;;;;9.18;6.20;;;2.50;99.90;;;;;;5017766;28;20081;-83
2021/03/03 07:45:14;;;;;;;11.02;5.53;;;2.40;99.90;;;;;;5027174;28;20086;-81
2021/03/03 07:47:43;;;;;;;8.88;5.88;;;2.60;99.90;;;;;;5016364;28;20081;-81
2021/03/03 07:50:14;;;;;;;11.70;6.88;;;2.70;99.90;;;;;;5012521;28;20078;-83
2021/03/03 07:52:44;;;;;;;8.95;5.70;;;2.70;99.90;;;;;;5014624;28;20084;-83
2021/03/03 07:55:10;;;;;;;11.18;5.82;;;2.80;99.90;;;;;;5015696;28;20169;-84
2021/03/03 07:57:40;;;;;;;7.63;6.28;;;2.80;99.90;;;;;;5003577;28;20108;-83
2021/03/03 08:00:09;;;;;;;8.40;5.68;;;2.90;99.90;;;;;;5006645;28;20089;-84
2021/03/03 08:02:45;;;;;;;10.00;6.50;;;3.10;99.90;;;;;;5013817;28;20078;-83
2021/03/03 08:05:30;;;;;;;11.70;6.85;;;3.00;99.90;;;;;;5007285;28;20102;-84
2021/03/03 08:08:34;;;;;;;;;;;3.00;99.90;;;;;;5019988;28;20146;-83
2021/03/03 08:11:00;;;;;;;10.57;6.35;;;3.00;99.90;;;;;;5006052;28;19988;-83
2021/03/03 08:13:28;;;;;;;9.88;6.10;;;3.20;99.90;;;;;;5012283;28;20187;-84
2021/03/03 08:15:59;;;;;;;14.52;7.78;;;3.20;99.90;;;;;;4997724;28;20195;-85
2021/03/03 08:18:29;;;;;;;12.15;7.38;;;3.40;99.90;;;;;;5006394;28;20074;-82
2021/03/03 08:20:56;;;;;;;12.20;7.35;;;3.50;99.90;;;;;;5012407;28;20085;-81
2021/03/03 08:23:34;;;;;;;14.45;8.07;;;3.70;99.90;;;;;;5027658;28;20077;-81
2021/03/03 08:26:12;;;;;;;15.43;7.85;;;3.80;99.90;;;;;;5025078;28;20645;-81
2021/03/03 08:28:39;;;;;;;9.73;6.90;;;3.90;99.90;;;;;;5015771;28;20080;-81
2021/03/03 08:31:13;;;;;;;13.38;7.63;;;4.40;99.90;;;;;;5004701;28;20122;-80
2021/03/03 08:33:41;;;;;;;13.65;7.65;;;4.50;99.90;;;;;;5008802;28;20077;-81
2021/03/03 08:36:29;;;;;;;14.73;8.32;;;4.50;99.90;;;;;;5017764;28;20149;-83
2021/03/03 08:38:54;;;;;;;13.88;7.75;;;4.90;99.90;;;;;;5013144;28;20094;-84
2021/03/03 08:41:26;;;;;;;9.20;6.78;;;5.10;99.90;;;;;;5008936;28;20090;-84
2021/03/03 08:44:03;;;;;;;10.52;6.53;;;5.40;99.90;;;;;;5013361;28;20148;-84
2021/03/03 08:46:28;;;;;;;10.07;6.63;;;5.50;99.90;;;;;;5014404;28;20581;-86
2021/03/03 08:48:57;;;;;;;8.00;5.57;;;5.70;99.90;;;;;;5003851;28;20111;-82
2021/03/03 08:51:36;;;;;;;10.23;4.50;;;5.80;99.90;;;;;;5011994;28;20209;-84
2021/03/03 08:54:02;;;;;;;8.82;4.30;;;5.80;99.90;;;;;;5013956;28;20093;-83
2021/03/03 08:56:44;;;;;;;5.07;3.50;;;6.10;99.90;;;;;;5026776;28;20094;-84
2021/03/03 08:59:28;;;;;;;5.25;2.92;;;6.40;99.90;;;;;;5029062;28;20074;-84
2021/03/03 09:02:17;;;;;;;5.50;3.45;;;6.70;99.90;;;;;;4996773;28;20086;-82
2021/03/03 09:04:51;;;;;;;5.85;3.22;;;6.90;99.90;;;;;;5003170;28;20083;-81
2021/03/03 09:07:23;;;;;;;4.60;2.97;;;6.70;99.90;;;;;;4998489;28;20121;-79
2021/03/03 09:09:55;;;;;;;5.20;3.05;;;7.10;99.90;;;;;;4999835;28;20427;-82
2021/03/03 09:12:25;;;;;;;6.60;3.30;;;7.30;99.90;;;;;;4999335;28;20089;-84
2021/03/03 09:14:53;;;;;;;5.35;3.17;;;7.30;99.90;;;;;;5002719;28;20102;-83
2021/03/03 09:17:28;;;;;;;5.68;3.20;;;7.40;99.90;;;;;;5005287;28;20090;-84
2021/03/03 09:20:08;;;;;;;5.15;2.88;;;7.50;99.90;;;;;;5004481;28;20143;-84
2021/03/03 09:22:39;;;;;;;6.45;2.90;;;7.70;99.90;;;;;;5021279;28;20097;-84
2021/03/03 09:25:20;;;;;;;5.03;2.90;;;7.70;99.90;;;;;;5003704;28;20089;-83
2021/03/03 09:27:58;;;;;;;4.97;3.35;;;7.90;99.90;;;;;;5011305;28;20094;-84
2021/03/03 09:30:26;;;;;;;5.68;3.40;;;7.80;99.90;;;;;;5009344;28;20074;-84
2021/03/03 09:32:53;;;;;;;5.68;3.17;;;7.90;99.90;;;;;;4998282;28;20436;-83
2021/03/03 09:35:30;;;;;;;4.22;2.95;;;7.60;99.90;;;;;;5010034;28;20449;-83
2021/03/03 09:37:56;;;;;;;4.43;3.42;;;7.70;98.90;;;;;;5008330;28;20066;-84
2021/03/03 09:40:34;;;;;;;4.55;3.00;;;7.20;98.60;;;;;;4999990;28;20074;-82
2021/03/03 09:43:01;;;;;;;4.55;2.83;;;7.30;98.80;;;;;;5013468;28;20078;-84
2021/03/03 09:45:29;;;;;;;7.40;3.28;;;7.50;96.30;;;;;;5014089;28;20113;-84
2021/03/03 09:47:56;;;;;;;5.13;2.85;;;7.50;96.40;;;;;;5019969;28;20108;-86
2021/03/03 09:50:28;;;;;;;9.45;2.67;;;7.70;93.00;;;;;;5014336;28;20151;-83
2021/03/03 09:52:57;;;;;;;4.57;2.08;;;7.80;90.30;;;;;;5003101;28;20087;-84
2021/03/03 09:55:26;;;;;;;4.03;2.60;;;7.90;88.00;;;;;;4997546;28;20625;-81
2021/03/03 09:57:56;;;;;;;4.53;3.17;;;8.30;85.20;;;;;;5007319;28;20137;-80
2021/03/03 10:00:43;;;;;;;4.03;2.80;;;8.20;88.30;;;;;;5007977;28;20070;-80
2021/03/03 10:03:14;;;;;;;4.05;2.38;;;8.00;90.50;;;;;;5015457;28;20085;-79
2021/03/03 10:05:40;;;;;;;2.92;2.03;;;8.00;90.00;;;;;;5017082;28;20121;-78
2021/03/03 10:08:08;;;;;;;3.03;2.20;;;8.10;89.30;;;;;;5018379;28;20074;-79
2021/03/03 10:10:36;;;;;;;4.72;2.38;;;8.10;83.60;;;;;;5018113;28;20196;-79
2021/03/03 10:13:02;;;;;;;8.45;3.15;;;8.40;87.20;;;;;;5022521;28;20124;-79
2021/03/03 10:15:33;;;;;;;4.13;2.25;;;8.50;81.80;;;;;;5020984;28;20136;-79
2021/03/03 10:18:02;;;;;;;4.45;2.78;;;8.40;90.30;;;;;;5021380;28;20712;-79
2021/03/03 10:20:36;;;;;;;3.90;2.60;;;8.40;87.80;;;;;;5014794;28;20078;-79
2021/03/03 10:23:13;;;;;;;5.90;2.85;;;8.50;86.10;;;;;;5022847;28;20078;-79
2021/03/03 10:25:47;;;;;;;4.97;2.95;;;8.60;84.70;;;;;;5016214;28;20105;-79
2021/03/03 10:28:16;;;;;;;5.00;2.55;;;8.70;85.20;;;;;;5024496;28;20080;-80
2021/03/03 10:30:44;;;;;;;5.03;3.00;;;8.40;84.70;;;;;;5016970;28;20181;-80
2021/03/03 10:33:23;;;;;;;6.20;2.88;;;8.50;87.50;;;;;;5017300;28;20078;-79
2021/03/03 10:35:51;;;;;;;4.30;2.80;;;8.70;85.60;;;;;;5024241;28;20166;-79
2021/03/03 10:38:21;;;;;;;3.22;2.45;;;8.80;81.50;;;;;;5020289;28;20086;-79
2021/03/03 10:40:49;;;;;;;3.58;2.42;;;8.80;77.40;;;;;;5026382;28;20117;-80
2021/03/03 10:43:24;;;;;;;4.47;2.90;;;9.20;76.30;;;;;;5021833;28;20105;-79
2021/03/03 10:46:13;;;;;;;4.40;2.80;;;9.20;73.70;;;;;;5013060;28;20128;-79
2021/03/03 10:48:40;;;;;;;4.97;3.20;;;9.30;77.00;;;;;;5008165;28;20074;-80
2021/03/03 10:51:06;;;;;;;3.40;2.95;;;9.40;77.00;;;;;;5023529;28;20116;-81
2021/03/03 10:53:54;;;;;;;4.13;2.92;;;9.50;72.80;;;;;;5017358;28;20085;-80
2021/03/03 10:56:24;;;;;;;3.72;1.90;;;9.30;73.70;;;;;;5015445;28;20193;-79
2021/03/03 10:58:51;;;;;;;6.95;3.60;;;9.30;71.10;;;;;;5025714;28;20147;-81
2021/03/03 11:01:18;;;;;;;4.80;2.70;;;9.60;71.20;;;;;;5015569;28;20081;-82
2021/03/03 11:03:58;;;;;;;5.00;2.60;;;9.70;70.80;;;;;;5024456;28;20471;-82
2021/03/03 11:06:29;;;;;;;3.75;2.67;;;9.80;71.00;;;;;;5004387;28;20102;-81
2021/03/03 11:08:54;;;;;;;3.92;2.15;;;9.70;73.80;;;;;;5015437;28;20070;-81
2021/03/03 11:11:20;;;;;;;4.88;2.55;;;9.60;71.80;;;;;;5015314;28;20131;-81
2021/03/03 11:13:46;;;;;;;3.28;2.25;;;9.50;75.70;;;;;;5013067;28;20074;-81
2021/03/03 11:16:12;;;;;;;5.63;3.10;;;9.50;79.20;;;;;;5012990;28;20086;-82
2021/03/03 11:18:39;;;;;;;4.40;2.50;;;9.60;75.20;;;;;;5010102;28;20070;-83
2021/03/03 11:21:04;;;;;;;3.95;2.72;;;9.40;76.70;;;;;;5000966;28;20161;-83
2021/03/03 11:23:30;;;;;;;5.82;2.60;;;9.60;75.50;;;;;;4996114;28;20121;-83
2021/03/03 11:25:57;;;;;;;4.43;2.33;;;9.90;77.00;;;;;;5013279;28;20097;-83
2021/03/03 11:28:24;;;;;;;9.15;2.70;;;9.70;76.40;;;;;;5013120;28;20088;-83
2021/03/03 11:30:52;;;;;;;6.10;2.72;;;10.00;79.00;;;;;;5009516;28;20087;-83
2021/03/03 11:33:18;;;;;;;4.57;2.85;;;10.10;77.40;;;;;;5005496;28;20473;-83
2021/03/03 11:35:44;;;;;;;5.35;2.72;;;9.80;82.30;;;;;;5009621;28;20098;-83
2021/03/03 11:38:10;;;;;;;3.65;2.53;;;9.70;82.00;;;;;;5012472;28;20206;-83
2021/03/03 11:40:36;;;;;;;4.93;2.83;;;9.70;82.00;;;;;;5019890;28;20093;-83
2021/03/03 11:43:02;;;;;;;4.43;2.55;;;9.80;84.70;;;;;;4996965;28;20177;-82
2021/03/03 11:45:28;;;;;;;7.93;3.10;;;10.10;81.20;;;;;;5010758;28;20118;-82
2021/03/03 11:47:54;;;;;;;7.40;3.25;;;10.10;83.00;;;;;;5017321;28;20234;-83
2021/03/03 11:50:20;;;;;;;8.45;3.80;;;10.40;83.10;;;;;;5008136;28;20102;-84
2021/03/03 11:52:45;;;;;;;4.28;3.38;;;10.40;85.40;;;;;;5020381;28;20078;-82
2021/03/03 11:55:11;;;;;;;5.95;3.88;;;10.40;84.10;;;;;;5029020;28;20102;-83
2021/03/03 11:57:37;;;;;;;7.22;3.58;;;10.20;83.20;;;;;;5029056;28;20073;-82
2021/03/03 12:00:06;;;;;;;4.32;3.00;;;10.30;82.20;;;;;;5019692;28;21248;-82
2021/03/03 12:02:32;;;;;;;8.52;3.92;;;10.50;80.90;;;;;;5021590;28;20397;-82
2021/03/03 12:04:58;;;;;;;6.25;3.08;;;10.40;83.00;;;;;;5024941;28;20074;-84
2021/03/03 12:07:24;;;;;;;8.02;4.43;;;10.30;82.80;;;;;;5021876;28;20439;-83
2021/03/03 12:09:50;;;;;;;6.15;3.60;;;10.20;83.40;;;;;;5010924;28;20089;-82
2021/03/03 12:12:15;;;;;;;5.25;3.78;;;10.20;87.20;;;;;;5023109;28;20101;-83
2021/03/03 12:14:41;;;;;;;7.60;4.25;;;10.40;84.30;;;;;;5024171;28;20662;-83
2021/03/03 12:17:07;;;;;;;6.80;4.18;;;10.40;87.70;;;;;;5018491;28;20609;-83
2021/03/03 12:19:33;;;;;;;10.60;4.47;;;10.50;84.80;;;;;;5009084;28;20536;-82
2021/03/03 12:21:58;;;;;;;6.03;3.95;;;10.50;84.10;;;;;;5003254;28;20090;-82
2021/03/03 12:24:25;;;;;;;6.28;3.78;;;10.60;84.30;;;;;;5004583;28;20086;-82
2021/03/03 12:26:52;;;;;;;7.28;4.55;;;10.60;84.20;;;;;;5009344;28;20177;-82
2021/03/03 12:29:18;;;;;;;5.70;3.83;;;10.60;88.80;;;;;;4999941;28;20078;-82
2021/03/03 12:31:44;;;;;;;5.90;3.70;;;10.70;82.70;;;;;;5014958;28;20808;-81
2021/03/03 12:34:10;;;;;;;8.65;4.05;;;10.60;87.20;;;;;;5011782;28;20144;-83
2021/03/03 12:36:36;;;;;;;6.70;5.18;;;10.60;82.00;;;;;;5014484;28;20086;-82
2021/03/03 12:39:02;;;;;;;6.43;4.18;;;10.70;80.30;;;;;;5007529;28;20075;-82
2021/03/03 12:41:28;;;;;;;5.95;4.10;;;10.80;80.40;;;;;;5004256;28;20112;-83
2021/03/03 12:43:54;;;;;;;6.22;3.88;;;10.50;82.00;;;;;;5011577;28;20082;-82
2021/03/03 12:46:20;;;;;;;8.93;4.07;;;10.60;81.80;;;;;;5013876;28;20090;-82
2021/03/03 12:48:46;;;;;;;6.63;4.10;;;10.80;83.00;;;;;;5012752;28;20152;-84
2021/03/03 12:51:11;;;;;;;7.47;4.25;;;11.00;79.90;;;;;;5008908;28;20532;-83
2021/03/03 12:53:37;;;;;;;9.55;5.05;;;10.80;83.80;;;;;;5014430;28;20078;-82
2021/03/03 12:56:03;;;;;;;7.05;4.28;;;10.70;83.20;;;;;;5008210;28;20093;-82